Terminal Aerodrome Forecast
Issued by NWS

Home | Current Version | Previous Version | Text Only | Print | Product List | Glossary On
Versions: 1 2 3 4 5 6 7 8 9 10 11 12 13 14 15 16 17 18 19 20 21 22 23
000
FTUS41 KBOX 071720
TAFHYA
TAF
KHYA 071720Z 0718/0818 VRB03KT P6SM OVC030
     FM072000 27005KT P6SM SCT030 OVC080
     FM080000 29006KT P6SM BKN080
     FM080500 VRB03KT P6SM SCT130
     FM081400 26006KT P6SM BKN110=

USA.gov is the U.S. government's official web portal to all federal, state and local government web resources and services.